Time;durP1;ratioP1;P1;durP2;ratioP2;P2;SDS_P1;SDS_P2;PMS_P1;PMS_P2;Temp;Humidity;BMP_temperature;BMP_pressure;BME280_temperature;BME280_humidity;BME280_pressure;Samples;Min_cycle;Max_cycle;Signal;HPM_P1;HPM_P2
2023/05/09 00:01:16;;;;;;;102.35;37.38;;;;;;;15.46;100.00;101450.38;4871736;29;20041;-81
2023/05/09 00:03:42;;;;;;;96.38;37.92;;;;;;;15.37;100.00;101441.06;4895022;29;20037;-82
2023/05/09 00:06:08;;;;;;;97.80;37.80;;;;;;;15.28;100.00;101447.41;4888443;29;20040;-81
2023/05/09 00:08:34;;;;;;;106.13;38.75;;;;;;;15.23;100.00;101439.56;4902589;29;20033;-81
2023/05/09 00:11:01;;;;;;;105.43;38.75;;;;;;;15.23;100.00;101441.41;4871963;29;20051;-81
2023/05/09 00:13:26;;;;;;;105.30;38.92;;;;;;;15.24;100.00;101445.94;4882099;29;20388;-81
2023/05/09 00:15:56;;;;;;;106.00;37.40;;;;;;;15.25;100.00;101447.69;4874408;29;20069;-81
2023/05/09 00:18:22;;;;;;;102.55;38.45;;;;;;;15.27;100.00;101433.78;4877079;29;20440;-81
2023/05/09 00:20:48;;;;;;;99.85;38.17;;;;;;;15.28;100.00;101430.84;4882103;29;20037;-81
2023/05/09 00:23:14;;;;;;;99.53;37.63;;;;;;;15.16;100.00;101408.00;4865748;29;20120;-81
2023/05/09 00:25:39;;;;;;;100.47;40.05;;;;;;;15.06;100.00;101415.34;4900865;29;20075;-81
2023/05/09 00:28:05;;;;;;;106.00;39.08;;;;;;;15.17;100.00;101415.28;4869757;29;20052;-80
2023/05/09 00:30:30;;;;;;;108.68;37.50;;;;;;;15.14;100.00;101421.06;4840246;29;20033;-80
2023/05/09 00:32:56;;;;;;;95.07;36.10;;;;;;;15.07;100.00;101422.63;4887719;29;20040;-80
2023/05/09 00:35:21;;;;;;;97.55;38.28;;;;;;;15.12;100.00;101420.34;4871059;29;20044;-81
2023/05/09 00:37:47;;;;;;;86.68;34.65;;;;;;;15.11;100.00;101415.81;4870359;29;20050;-81
2023/05/09 00:40:12;;;;;;;85.13;33.15;;;;;;;15.15;100.00;101408.13;4900984;29;20554;-81
2023/05/09 00:42:38;;;;;;;78.07;30.27;;;;;;;15.10;100.00;101407.69;4870653;29;20068;-81
2023/05/09 00:45:04;;;;;;;69.93;29.77;;;;;;;15.13;100.00;101416.53;4884199;29;20484;-81
2023/05/09 00:47:30;;;;;;;66.82;29.08;;;;;;;15.02;100.00;101406.50;4887163;29;20049;-80
2023/05/09 00:49:57;;;;;;;67.32;27.65;;;;;;;15.07;100.00;101398.69;4886911;29;20036;-81
2023/05/09 00:52:25;;;;;;;61.35;28.27;;;;;;;15.13;100.00;101383.44;4862202;29;20041;-81
2023/05/09 00:54:52;;;;;;;58.10;27.13;;;;;;;15.06;100.00;101376.75;4900074;29;20037;-80
2023/05/09 00:57:18;;;;;;;59.53;26.33;;;;;;;15.04;100.00;101389.81;4872825;29;20040;-81
2023/05/09 00:59:43;;;;;;;62.70;25.60;;;;;;;15.02;100.00;101383.53;4856165;29;20095;-81
2023/05/09 01:02:09;;;;;;;60.40;27.33;;;;;;;15.03;100.00;101375.13;4888947;29;20036;-80
2023/05/09 01:04:35;;;;;;;58.28;26.20;;;;;;;15.01;100.00;101368.88;4851995;29;20139;-80
2023/05/09 01:07:26;;;;;;;55.95;25.83;;;;;;;15.10;100.00;101375.44;4871033;29;20060;-80
2023/05/09 01:10:18;;;;;;;61.50;27.55;;;;;;;15.00;100.00;101366.25;4900407;29;20044;-79
2023/05/09 01:13:03;;;;;;;56.55;25.25;;;;;;;14.96;100.00;101364.81;4863187;29;20092;-79
2023/05/09 01:15:34;;;;;;;62.47;26.90;;;;;;;14.85;100.00;101374.88;4874952;29;20512;-79
2023/05/09 01:18:11;;;;;;;55.58;25.63;;;;;;;14.76;100.00;101355.53;4891084;29;20032;-79
2023/05/09 01:20:46;;;;;;;60.97;27.00;;;;;;;14.79;100.00;101366.28;4890646;29;20021;-79
2023/05/09 01:23:25;;;;;;;62.28;27.15;;;;;;;14.86;100.00;101371.13;4863232;29;20119;-80
2023/05/09 01:26:07;;;;;;;58.67;25.52;;;;;;;14.93;100.00;101368.69;4880576;29;20460;-80
2023/05/09 01:28:51;;;;;;;60.20;26.80;;;;;;;15.00;100.00;101366.25;4868400;29;20036;-79
2023/05/09 01:31:18;;;;;;;56.60;25.92;;;;;;;14.94;100.00;101358.53;4897885;29;20037;-78
2023/05/09 01:33:47;;;;;;;62.63;27.17;;;;;;;14.97;100.00;101352.75;4872393;29;20052;-80
2023/05/09 01:36:16;;;;;;;58.63;25.92;;;;;;;14.94;100.00;101342.88;4894194;29;20115;-80
2023/05/09 01:38:44;;;;;;;64.72;27.08;;;;;;;14.88;100.00;101354.44;4869045;29;20096;-80
2023/05/09 01:41:14;;;;;;;60.45;26.77;;;;;;;14.97;100.00;101333.44;4888399;29;20037;-79
2023/05/09 01:43:41;;;;;;;67.00;27.38;;;;;;;15.01;100.00;101338.53;4882338;29;20404;-80
2023/05/09 01:46:08;;;;;;;71.35;28.50;;;;;;;15.06;100.00;101335.38;4881002;29;20024;-79
2023/05/09 01:48:36;;;;;;;59.47;25.92;;;;;;;14.97;100.00;101339.84;4904130;29;20399;-80
2023/05/09 01:51:04;;;;;;;67.70;27.52;;;;;;;14.88;100.00;101327.75;4889241;29;20056;-80
2023/05/09 01:53:31;;;;;;;67.30;27.48;;;;;;;14.94;100.00;101333.72;4906192;29;20040;-81
2023/05/09 01:55:58;;;;;;;63.40;27.77;;;;;;;14.95;100.00;101332.72;4889001;29;20064;-80
2023/05/09 01:58:25;;;;;;;68.90;28.13;;;;;;;14.91;100.00;101325.75;4872592;29;20531;-80
2023/05/09 02:00:51;;;;;;;63.00;27.30;;;;;;;14.97;100.00;101328.81;4867616;29;20037;-81
2023/05/09 02:03:17;;;;;;;57.85;26.92;;;;;;;14.93;100.00;101320.97;4854851;29;20146;-81
2023/05/09 02:05:44;;;;;;;68.93;29.58;;;;;;;14.91;100.00;101328.50;4861763;29;20086;-80
2023/05/09 02:08:10;;;;;;;60.85;27.77;;;;;;;14.91;100.00;101325.75;4872851;29;20045;-82
2023/05/09 02:10:36;;;;;;;71.28;29.08;;;;;;;14.92;100.00;101327.47;4903787;29;20068;-81
2023/05/09 02:13:02;;;;;;;67.40;28.65;;;;;;;14.85;100.00;101322.50;4887464;29;20060;-81
2023/05/09 02:15:29;;;;;;;69.00;29.77;;;;;;;14.81;100.00;101328.44;4871299;29;20037;-81
2023/05/09 02:17:54;;;;;;;64.78;28.30;;;;;;;14.68;100.00;101310.25;4871527;29;20068;-83
2023/05/09 02:20:20;;;;;;;69.38;29.92;;;;;;;14.80;100.00;101323.94;4883416;29;20092;-81
2023/05/09 02:22:46;;;;;;;80.07;31.83;;;;;;;14.71;100.00;101322.88;4875088;29;20088;-81
2023/05/09 02:25:15;;;;;;;77.72;33.20;;;;;;;14.69;100.00;101312.00;4887755;29;20059;-82
2023/05/09 02:27:44;;;;;;;81.85;32.78;;;;;;;14.63;100.00;101309.78;4872649;29;20123;-82
2023/05/09 02:30:14;;;;;;;76.30;31.45;;;;;;;14.69;100.00;101314.75;4879591;29;20025;-83
2023/05/09 02:32:43;;;;;;;81.80;32.40;;;;;;;14.73;100.00;101323.63;4904125;29;20033;-83
2023/05/09 02:35:09;;;;;;;76.40;30.88;;;;;;;14.65;100.00;101317.91;4869101;29;20037;-81
2023/05/09 02:37:35;;;;;;;72.60;30.02;;;;;;;14.76;100.00;101325.22;4864085;29;20033;-81
2023/05/09 02:40:01;;;;;;;82.60;32.03;;;;;;;14.67;100.00;101310.38;4868082;29;20056;-81
2023/05/09 02:42:29;;;;;;;86.28;31.52;;;;;;;14.68;100.00;101313.00;4864474;29;20036;-82
2023/05/09 02:44:54;;;;;;;76.00;32.35;;;;;;;14.66;100.00;101298.50;4886192;29;20088;-81
2023/05/09 02:47:21;;;;;;;76.07;32.08;;;;;;;14.65;100.00;101309.66;4840993;29;20087;-80
2023/05/09 02:49:47;;;;;;;79.32;32.83;;;;;;;14.67;100.00;101307.63;4883887;29;20029;-80
2023/05/09 02:52:13;;;;;;;77.45;32.75;;;;;;;14.66;100.00;101308.66;4870970;29;20502;-81
2023/05/09 02:54:39;;;;;;;74.85;31.65;;;;;;;14.63;100.00;101306.16;4870115;29;20032;-81
2023/05/09 02:57:04;;;;;;;75.85;32.53;;;;;;;14.65;100.00;101299.50;4855242;29;20068;-81
2023/05/09 02:59:30;;;;;;;72.15;31.40;;;;;;;14.63;100.00;101307.03;4865578;29;20029;-82
2023/05/09 03:01:56;;;;;;;76.05;31.48;;;;;;;14.57;100.00;101282.72;4853439;29;20437;-81
2023/05/09 03:04:22;;;;;;;76.68;31.98;;;;;;;14.64;100.00;101305.13;4861744;29;20036;-81
2023/05/09 03:06:48;;;;;;;76.22;32.58;;;;;;;14.70;100.00;101304.59;4869237;29;20051;-82
2023/05/09 03:09:14;;;;;;;73.32;31.08;;;;;;;14.69;100.00;101294.56;4887772;29;20043;-81
2023/05/09 03:11:39;;;;;;;67.20;28.98;;;;;;;14.72;100.00;101299.81;4886389;29;20049;-80
2023/05/09 03:14:07;;;;;;;69.10;30.02;;;;;;;14.68;100.00;101285.44;4906453;29;20044;-81
2023/05/09 03:16:32;;;;;;;65.70;29.65;;;;;;;14.59;100.00;101280.75;4874016;29;20172;-82
2023/05/09 03:18:58;;;;;;;65.72;28.90;;;;;;;14.68;100.00;101290.94;4878969;29;20489;-80
2023/05/09 03:21:24;;;;;;;71.28;30.27;;;;;;;14.65;100.00;101293.13;4873883;29;20024;-81
2023/05/09 03:23:52;;;;;;;63.88;30.17;;;;;;;14.68;100.00;101285.44;4872399;29;20056;-80
2023/05/09 03:26:17;;;;;;;67.72;27.38;;;;;;;14.66;100.00;101289.34;4869380;29;20043;-79
2023/05/09 03:28:43;;;;;;;67.70;28.45;;;;;;;14.64;100.00;101278.47;4862811;29;20115;-79
2023/05/09 03:31:08;;;;;;;60.03;27.35;;;;;;;14.73;100.00;101276.75;4854656;29;20043;-80
2023/05/09 03:33:34;;;;;;;53.92;26.35;;;;;;;14.63;100.00;101267.59;4869292;29;20057;-79
2023/05/09 03:35:59;;;;;;;57.38;26.40;;;;;;;14.62;100.00;101266.69;4852050;29;20040;-80
2023/05/09 03:38:25;;;;;;;60.80;26.52;;;;;;;14.44;100.00;101243.50;4840951;29;20048;-80
2023/05/09 03:40:52;;;;;;;58.97;26.17;;;;;;;14.57;100.00;101265.34;4872733;29;20052;-81
2023/05/09 03:43:18;;;;;;;58.40;26.85;;;;;;;14.56;100.00;101252.56;4869558;29;20040;-81
2023/05/09 03:45:44;;;;;;;61.28;26.40;;;;;;;14.53;100.00;101246.31;4873342;29;20028;-81
2023/05/09 03:48:10;;;;;;;49.65;23.95;;;;;;;14.58;100.00;101258.81;4870194;29;20048;-81
2023/05/09 03:50:36;;;;;;;58.30;27.98;;;;;;;14.57;100.00;101263.44;4885615;29;20051;-81
2023/05/09 03:53:02;;;;;;;58.67;26.55;;;;;;;14.53;100.00;101253.72;4886106;29;20144;-81
2023/05/09 03:55:27;;;;;;;54.45;24.67;;;;;;;14.57;100.00;101255.16;4885165;29;20084;-81
2023/05/09 03:57:53;;;;;;;61.63;25.48;;;;;;;14.60;100.00;101252.19;4869755;29;20428;-81
2023/05/09 04:00:20;;;;;;;53.50;25.40;;;;;;;14.61;100.00;101247.53;4882706;29;20037;-80
2023/05/09 04:02:45;;;;;;;50.67;24.38;;;;;;;14.60;100.00;101245.81;4869515;29;20033;-80
2023/05/09 04:05:11;;;;;;;50.95;24.92;;;;;;;14.60;100.00;101241.16;4868192;29;20039;-80
2023/05/09 04:07:36;;;;;;;51.47;24.50;;;;;;;14.55;100.00;101239.81;4899352;29;20028;-79
2023/05/09 04:10:02;;;;;;;49.75;23.17;;;;;;;14.58;100.00;101248.66;4869078;29;20041;-79
2023/05/09 04:12:27;;;;;;;54.05;23.80;;;;;;;14.63;100.00;101245.53;4835574;29;20544;-78
2023/05/09 04:14:53;;;;;;;48.40;23.70;;;;;;;14.56;100.00;101247.03;4896756;29;20547;-78
2023/05/09 04:17:18;;;;;;;44.85;22.30;;;;;;;14.52;100.00;101229.91;4875661;29;20049;-79
2023/05/09 04:19:44;;;;;;;46.00;23.83;;;;;;;14.60;100.00;101232.88;4836613;29;20395;-80
2023/05/09 04:22:09;;;;;;;43.58;21.25;;;;;;;14.59;100.00;101233.00;4865669;29;20472;-80
2023/05/09 04:24:35;;;;;;;42.55;21.00;;;;;;;14.58;100.00;101229.38;4865606;29;20048;-79
2023/05/09 04:27:01;;;;;;;52.13;21.90;;;;;;;14.61;100.00;101234.66;4849746;29;20032;-79
2023/05/09 04:29:27;;;;;;;46.17;22.55;;;;;;;14.57;100.00;101222.09;4869567;29;20024;-81
2023/05/09 04:31:52;;;;;;;44.25;21.50;;;;;;;14.60;100.00;101224.63;4851267;29;20045;-81
2023/05/09 04:34:18;;;;;;;42.25;21.02;;;;;;;14.51;100.00;101225.41;4887667;29;20075;-81
2023/05/09 04:36:43;;;;;;;45.15;22.08;;;;;;;14.64;100.00;101227.97;4884501;29;20123;-81
2023/05/09 04:39:09;;;;;;;46.05;21.80;;;;;;;14.57;100.00;101226.75;4885338;29;20045;-81
2023/05/09 04:41:35;;;;;;;40.92;20.63;;;;;;;14.56;100.00;101225.88;4869386;29;20032;-81
2023/05/09 04:44:01;;;;;;;47.17;21.83;;;;;;;14.47;100.00;101199.16;4869478;29;20032;-81
2023/05/09 04:46:26;;;;;;;38.97;21.02;;;;;;;14.57;100.00;101219.34;4879707;29;20045;-81
2023/05/09 04:48:52;;;;;;;42.88;22.65;;;;;;;14.52;100.00;101208.75;4867903;29;20036;-81
2023/05/09 04:51:17;;;;;;;42.13;20.80;;;;;;;14.65;100.00;101218.69;4887844;29;20041;-80
2023/05/09 04:53:43;;;;;;;42.75;21.60;;;;;;;14.72;100.00;101205.22;4873923;29;20441;-80
2023/05/09 04:56:09;;;;;;;46.97;21.85;;;;;;;14.69;100.00;101192.59;4888315;29;20041;-80
2023/05/09 04:58:37;;;;;;;44.67;21.73;;;;;;;14.74;100.00;101195.81;4842228;29;20443;-80
2023/05/09 05:01:04;;;;;;;44.58;21.83;;;;;;;14.92;100.00;101203.38;4886943;29;20040;-80
2023/05/09 05:03:30;;;;;;;44.53;22.23;;;;;;;14.97;100.00;101203.84;4888058;29;20095;-81
2023/05/09 05:05:56;;;;;;;43.10;21.10;;;;;;;15.08;100.00;101198.19;4848009;29;20144;-81
2023/05/09 05:08:21;;;;;;;36.47;22.02;;;;;;;15.08;100.00;101200.97;4904404;29;20040;-81
2023/05/09 05:10:48;;;;;;;44.42;21.27;;;;;;;15.09;100.00;101194.44;4890438;29;20039;-81
2023/05/09 05:13:13;;;;;;;38.78;21.83;;;;;;;15.15;100.00;101193.88;4889294;29;20123;-80
2023/05/09 05:15:40;;;;;;;37.97;21.50;;;;;;;15.14;100.00;101182.97;4902333;29;20063;-80
2023/05/09 05:18:05;;;;;;;46.25;22.13;;;;;;;15.10;100.00;101167.72;4894182;29;20123;-80
2023/05/09 05:20:32;;;;;;;42.45;20.95;;;;;;;15.00;100.00;101164.94;4893645;29;20085;-80
2023/05/09 05:22:58;;;;;;;47.70;22.65;;;;;;;15.12;100.00;101180.38;4873589;29;20041;-81
2023/05/09 05:25:27;;;;;;;42.55;22.95;;;;;;;15.04;100.00;101169.19;4859025;29;20047;-80
2023/05/09 05:27:52;;;;;;;43.15;23.15;;;;;;;15.08;100.00;101165.09;4875287;29;20061;-80
2023/05/09 05:30:19;;;;;;;42.17;21.95;;;;;;;15.13;100.00;101161.94;4876594;29;20036;-80
2023/05/09 05:32:45;;;;;;;45.00;23.33;;;;;;;15.01;100.00;101150.16;4873422;29;20469;-80
2023/05/09 05:35:11;;;;;;;42.20;23.02;;;;;;;14.97;100.00;101141.31;4891422;29;20067;-80
2023/05/09 05:37:40;;;;;;;47.92;23.40;;;;;;;15.04;100.00;101152.63;4891268;29;20096;-80
2023/05/09 05:40:06;;;;;;;44.55;24.45;;;;;;;15.13;100.00;101156.41;4862053;29;21786;-81
2023/05/09 05:42:32;;;;;;;48.35;23.85;;;;;;;15.04;100.00;101147.13;4891011;29;20124;-79
2023/05/09 05:45:03;;;;;;;47.70;24.60;;;;;;;15.11;100.00;101147.41;4890895;29;20045;-80
2023/05/09 05:47:32;;;;;;;45.25;24.17;;;;;;;15.11;100.00;101151.03;4875924;29;20032;-83
2023/05/09 05:49:59;;;;;;;50.10;24.10;;;;;;;15.12;100.00;101144.50;4890206;29;20069;-79
2023/05/09 05:52:28;;;;;;;54.30;24.85;;;;;;;15.19;100.00;101150.31;4881627;29;20081;-79
2023/05/09 05:54:54;;;;;;;54.00;24.88;;;;;;;15.23;100.00;101147.13;4881619;29;20033;-80
2023/05/09 05:57:20;;;;;;;48.50;25.15;;;;;;;15.36;100.00;101141.28;4893019;29;20071;-80
2023/05/09 05:59:47;;;;;;;44.13;23.00;;;;;;;15.56;100.00;101139.41;4876824;29;20092;-79
2023/05/09 06:02:13;;;;;;;46.15;23.42;;;;;;;15.70;100.00;101142.75;4893074;29;20399;-78
2023/05/09 06:41:27;;;;;;;38.70;21.27;;;;;;;16.01;100.00;101079.03;5119600;27;20403;-82
2023/05/09 06:43:53;;;;;;;37.45;21.70;;;;;;;16.22;100.00;101104.53;5085111;28;20034;-83
2023/05/09 06:46:18;;;;;;;39.42;20.35;;;;;;;16.17;100.00;101098.59;5105167;28;20096;-83
2023/05/09 06:48:44;;;;;;;43.92;20.92;;;;;;;16.43;100.00;101096.00;5104961;28;20039;-81
2023/05/09 06:51:10;;;;;;;33.25;19.17;;;;;;;16.77;100.00;101086.16;5063454;28;20067;-83
2023/05/09 06:53:36;;;;;;;37.55;20.13;;;;;;;16.92;100.00;101092.06;5050924;28;20227;-82
2023/05/09 06:56:02;;;;;;;40.55;20.58;;;;;;;17.08;100.00;101090.31;5056188;28;20158;-85
2023/05/09 06:58:27;;;;;;;32.30;18.30;;;;;;;16.81;100.00;101082.06;5074070;28;20096;-83
2023/05/09 07:00:53;;;;;;;31.65;17.83;;;;;;;16.86;100.00;101083.38;5045229;28;20100;-82
2023/05/09 07:03:18;;;;;;;33.05;18.30;;;;;;;17.02;100.00;101081.78;5065713;28;20120;-82
2023/05/09 07:05:44;;;;;;;29.52;16.80;;;;;;;16.68;100.00;101055.66;5084490;28;20120;-81
2023/05/09 07:08:12;;;;;;;28.00;16.63;;;;;;;16.67;100.00;101073.25;5071984;28;20032;-83
2023/05/09 07:14:28;;;;;;;29.02;16.70;;;;;;;16.59;100.00;101041.91;5092871;28;20134;-83
2023/05/09 07:16:54;;;;;;;28.02;15.98;;;;;;;16.57;100.00;101044.81;5512092;22;20096;-86
2023/05/09 07:19:19;;;;;;;25.60;15.27;;;;;;;16.73;100.00;101055.19;5030607;28;20494;-85
2023/05/09 07:21:45;;;;;;;27.75;16.25;;;;;;;16.66;100.00;101038.38;5000629;28;20101;-85
2023/05/09 07:24:10;;;;;;;30.80;15.63;;;;;;;16.65;100.00;101050.44;4987001;28;20079;-84
2023/05/09 07:26:36;;;;;;;26.85;14.88;;;;;;;16.77;100.00;101053.84;5028903;28;20045;-82
2023/05/09 07:29:01;;;;;;;27.20;16.58;;;;;;;16.78;100.00;101055.59;4984334;28;20026;-82
2023/05/09 07:31:27;;;;;;;27.73;15.88;;;;;;;16.78;100.00;101047.28;5023778;28;20125;-85
2023/05/09 07:33:52;;;;;;;26.98;15.30;;;;;;;16.79;100.00;101050.91;4989747;28;20538;-85
2023/05/09 07:36:18;;;;;;;27.15;16.05;;;;;;;16.90;100.00;101047.94;5015708;28;20037;-86
2023/05/09 07:38:43;;;;;;;23.98;14.45;;;;;;;16.90;100.00;101042.41;5027797;28;20042;-83
2023/05/09 07:41:09;;;;;;;22.75;14.75;;;;;;;16.90;100.00;101045.19;5007621;28;20077;-87
2023/05/09 07:43:34;;;;;;;23.08;14.35;;;;;;;16.90;100.00;101048.84;5011176;28;20067;-86
2023/05/09 07:46:03;;;;;;;21.92;14.38;;;;;;;16.92;100.00;101051.44;4996376;28;20069;-88
2023/05/09 07:48:29;;;;;;;24.10;14.45;;;;;;;16.85;100.00;101042.03;4998892;28;20038;-88
2023/05/09 07:50:54;;;;;;;24.35;14.02;;;;;;;16.88;100.00;101034.28;5007200;28;20046;-88
2023/05/09 07:53:19;;;;;;;24.10;14.10;;;;;;;16.89;100.00;101047.09;4999371;28;20061;-88
2023/05/09 07:55:47;;;;;;;26.42;13.50;;;;;;;16.86;100.00;101038.25;5005500;28;20080;-86
2023/05/09 07:58:12;;;;;;;24.00;13.52;;;;;;;16.71;100.00;101036.00;4990098;28;20030;-87
2023/05/09 08:00:38;;;;;;;22.17;12.88;;;;;;;16.74;100.00;101037.56;4996211;28;20491;-88
2023/05/09 08:03:03;;;;;;;19.67;12.30;;;;;;;16.57;100.00;101008.03;5020702;28;20016;-86
2023/05/09 08:05:29;;;;;;;20.70;12.43;;;;;;;16.70;100.00;101027.84;4997160;28;20083;-86
2023/05/09 08:07:55;;;;;;;21.17;12.45;;;;;;;16.51;100.00;101026.09;4997743;28;20038;-87
2023/05/09 08:10:21;;;;;;;23.67;12.18;;;;;;;16.42;100.00;100999.41;5007727;28;20052;-85
2023/05/09 08:12:47;;;;;;;18.65;11.93;;;;;;;16.57;100.00;100999.72;5000703;28;20038;-85
2023/05/09 08:15:13;;;;;;;20.27;10.95;;;;;;;16.91;100.00;101005.44;5015454;28;20390;-85
2023/05/09 08:17:38;;;;;;;17.58;10.98;;;;;;;16.79;100.00;101007.56;5020904;28;20054;-82
2023/05/09 08:20:05;;;;;;;18.58;11.23;;;;;;;16.76;100.00;101006.97;5002575;28;20117;-84
2023/05/09 08:22:30;;;;;;;18.65;11.25;;;;;;;16.73;100.00;100997.13;4995856;28;20523;-83
2023/05/09 08:24:56;;;;;;;26.17;11.20;;;;;;;16.80;100.00;100991.84;4960102;28;20042;-84
2023/05/09 08:27:21;;;;;;;16.52;10.18;;;;;;;16.95;100.00;100992.16;4996916;28;20077;-85
2023/05/09 08:29:46;;;;;;;17.30;9.23;;;;;;;17.05;100.00;100982.75;4990833;28;20062;-85
2023/05/09 08:32:13;;;;;;;14.82;9.23;;;;;;;17.23;100.00;100987.34;5006921;28;20045;-83
2023/05/09 08:34:38;;;;;;;16.65;9.13;;;;;;;17.31;100.00;100994.88;4981915;28;20037;-84
2023/05/09 08:37:04;;;;;;;16.00;8.82;;;;;;;17.18;100.00;100990.59;4989892;28;20480;-83
2023/05/09 08:39:30;;;;;;;11.35;7.72;;;;;;;17.28;100.00;101001.56;5003022;28;20129;-82
2023/05/09 08:42:00;;;;;;;12.50;7.55;;;;;;;17.29;100.00;100983.94;4991379;28;20092;-83
2023/05/09 08:44:28;;;;;;;14.95;6.50;;;;;;;17.43;100.00;100993.53;4999855;28;20022;-83
2023/05/09 08:47:03;;;;;;;11.43;6.60;;;;;;;17.48;100.00;100971.81;4991499;28;20054;-81
2023/05/09 08:49:29;;;;;;;8.57;6.40;;;;;;;17.58;100.00;100966.16;5014760;28;20021;-81
2023/05/09 08:51:55;;;;;;;17.17;7.07;;;;;;;17.49;100.00;100989.28;5009530;28;20532;-82
2023/05/09 08:54:22;;;;;;;12.80;6.53;;;;;;;17.07;100.00;100977.06;5016920;28;20033;-82
2023/05/09 08:56:48;;;;;;;9.60;6.55;;;;;;;16.99;100.00;100975.09;4972046;28;20109;-82
2023/05/09 08:59:16;;;;;;;11.63;6.68;;;;;;;16.90;100.00;100974.16;5011393;28;20056;-81
2023/05/09 09:01:42;;;;;;;7.75;5.85;;;;;;;16.88;100.00;100958.75;4997106;28;20030;-81
2023/05/09 09:04:08;;;;;;;10.93;6.57;;;;;;;16.98;100.00;100981.63;5013736;28;20041;-81
2023/05/09 09:06:35;;;;;;;10.77;6.70;;;;;;;17.06;100.00;100981.69;5011688;28;20397;-80
2023/05/09 09:09:07;;;;;;;10.45;6.88;;;;;;;17.02;100.00;100977.53;4995709;28;20041;-81
2023/05/09 09:11:34;;;;;;;9.18;6.68;;;;;;;16.99;100.00;100977.84;4994435;28;20041;-83
2023/05/09 09:14:04;;;;;;;12.90;7.10;;;;;;;16.73;100.00;100967.56;4966414;28;20038;-80
2023/05/09 09:16:31;;;;;;;14.70;7.03;;;;;;;16.70;100.00;100961.50;5006558;28;20061;-83
2023/05/09 09:18:57;;;;;;;12.30;6.53;;;;;;;16.69;100.00;100956.97;5022600;28;20025;-82
2023/05/09 09:21:23;;;;;;;13.02;6.93;;;;;;;16.69;100.00;100966.16;5031185;28;21537;-80
2023/05/09 09:23:51;;;;;;;10.00;6.35;;;;;;;16.81;100.00;100958.47;5013434;28;20037;-81
2023/05/09 09:26:16;;;;;;;15.68;6.38;;;;;;;16.67;100.00;100954.38;5003843;28;20037;-81
2023/05/09 09:28:42;;;;;;;13.35;6.70;;;;;;;16.65;100.00;100944.53;5008215;28;20037;-80
2023/05/09 09:31:24;;;;;;;10.48;6.20;;;;;;;16.75;100.00;100961.88;5011384;28;20040;-80
2023/05/09 09:33:50;;;;;;;11.70;6.75;;;;;;;16.62;100.00;100956.75;5044959;28;20042;-81
2023/05/09 09:36:25;;;;;;;11.90;6.43;;;;;;;16.56;100.00;100951.00;5037524;28;20061;-80
2023/05/09 09:38:57;;;;;;;9.80;6.05;;;;;;;16.78;100.00;100953.28;5036424;28;20025;-82
2023/05/09 09:41:29;;;;;;;8.83;6.20;;;;;;;16.70;100.00;100944.91;5024239;28;20025;-82
2023/05/09 09:43:55;;;;;;;11.77;6.88;;;;;;;16.73;100.00;100945.44;5014625;28;20287;-81
2023/05/09 09:46:20;;;;;;;11.85;6.43;;;;;;;16.46;100.00;100938.13;5018110;28;20552;-80
2023/05/09 09:48:53;;;;;;;12.57;6.50;;;;;;;16.45;100.00;100941.91;5000392;28;20435;-83
2023/05/09 09:51:20;;;;;;;11.20;6.03;;;;;;;16.33;100.00;100935.75;5021073;28;20143;-84
2023/05/09 09:53:46;;;;;;;11.13;5.55;;;;;;;16.25;100.00;100932.91;5017395;28;20037;-81
2023/05/09 09:56:12;;;;;;;7.55;5.45;;;;;;;16.36;100.00;100926.28;5002155;28;20028;-79
2023/05/09 09:58:37;;;;;;;11.70;6.20;;;;;;;16.31;100.00;100917.59;5019556;28;20044;-83
2023/05/09 10:01:15;;;;;;;9.82;6.05;;;;;;;16.37;100.00;100929.94;5004813;28;20037;-82
2023/05/09 10:03:43;;;;;;;8.88;5.88;;;;;;;16.22;100.00;100933.22;5005077;28;20024;-80
2023/05/09 10:06:14;;;;;;;10.20;5.80;;;;;;;16.23;100.00;100925.78;5027799;28;20040;-80
2023/05/09 10:08:40;;;;;;;10.38;5.75;;;;;;;16.15;100.00;100913.66;4982457;28;20096;-81
2023/05/09 10:12:35;;;;;;;4.97;4.40;;;;;;;16.02;100.00;100904.00;5121883;27;20533;-80
2023/05/09 10:15:08;;;;;;;6.93;4.68;;;;;;;15.79;100.00;100921.88;5106775;27;20075;-82
2023/05/09 10:17:33;;;;;;;10.07;4.30;;;;;;;15.95;100.00;100918.44;5031430;28;96657;-81
2023/05/09 10:20:04;;;;;;;7.90;4.65;;;;;;;15.73;100.00;100910.53;5067634;28;20083;-81
2023/05/09 10:22:35;;;;;;;8.38;4.82;;;;;;;15.73;100.00;100916.94;5068416;28;20056;-81
2023/05/09 10:25:03;;;;;;;6.85;4.43;;;;;;;15.75;100.00;100912.09;5060608;28;20115;-81
2023/05/09 10:27:31;;;;;;;7.78;4.57;;;;;;;15.70;100.00;100917.22;5080722;28;20087;-82
2023/05/09 10:30:06;;;;;;;4.43;3.65;;;;;;;15.50;100.00;100915.59;5067718;28;20033;-81
2023/05/09 10:32:56;;;;;;;5.22;3.08;;;;;;;15.38;100.00;100906.63;5050745;28;20439;-81
2023/05/09 10:35:26;;;;;;;4.38;3.03;;;;;;;15.50;100.00;100905.44;5051150;28;20117;-81
2023/05/09 10:37:56;;;;;;;6.28;4.03;;;;;;;15.30;100.00;100893.59;5044544;28;20051;-80
2023/05/09 10:40:22;;;;;;;5.07;3.50;;;;;;;15.26;100.00;100900.44;5060027;28;20064;-81
2023/05/09 10:42:49;;;;;;;6.35;3.40;;;;;;;15.32;100.00;100893.47;5023234;28;20037;-82
2023/05/09 10:45:14;;;;;;;4.20;3.80;;;;;;;15.24;100.00;100895.06;5026981;28;20049;-81
2023/05/09 10:47:42;;;;;;;8.60;4.95;;;;;;;15.37;100.00;100882.84;5022105;28;20029;-83
2023/05/09 10:50:11;;;;;;;8.73;4.05;;;;;;;15.28;100.00;100889.25;5068183;28;20033;-81
2023/05/09 10:53:09;;;;;;;6.55;4.15;;;;;;;15.36;100.00;100889.34;5019026;28;20061;-82
2023/05/09 10:55:54;;;;;;;5.18;4.18;;;;;;;15.42;100.00;100884.09;5035835;28;20498;-82
2023/05/09 10:58:32;;;;;;;10.88;5.20;;;;;;;15.48;100.00;100895.53;5035686;28;20029;-80
2023/05/09 11:00:59;;;;;;;8.95;4.88;;;;;;;15.28;100.00;100868.03;5035620;28;20017;-82
2023/05/09 11:03:25;;;;;;;7.68;4.68;;;;;;;15.12;100.00;100868.72;5038916;28;20057;-88
2023/05/09 11:05:56;;;;;;;8.85;5.60;;;;;;;15.16;100.00;100883.91;5032025;28;20033;-80
2023/05/09 11:08:26;;;;;;;8.05;4.28;;;;;;;15.05;100.00;100868.44;5040984;28;20107;-80
2023/05/09 11:10:56;;;;;;;4.68;3.70;;;;;;;15.25;100.00;100862.84;5050754;28;20060;-86
2023/05/09 11:13:23;;;;;;;5.43;4.30;;;;;;;15.45;100.00;100855.34;5046044;28;20472;-84
2023/05/09 11:16:02;;;;;;;4.57;3.85;;;;;;;15.44;100.00;100848.94;5034047;28;20029;-84
2023/05/09 11:18:28;;;;;;;5.28;2.97;;;;;;;15.47;100.00;100849.69;5052257;28;20041;-84
2023/05/09 11:20:54;;;;;;;5.10;3.15;;;;;;;15.54;100.00;100840.59;5050930;28;20029;-83
2023/05/09 11:23:29;;;;;;;4.93;3.20;;;;;;;15.38;100.00;100845.94;5032533;28;20041;-84
2023/05/09 11:26:06;;;;;;;5.47;3.42;;;;;;;15.36;100.00;100842.47;5014891;28;20030;-83
2023/05/09 11:28:35;;;;;;;10.90;3.90;;;;;;;15.38;100.00;100832.13;5055396;28;20037;-83
2023/05/09 11:31:15;;;;;;;6.38;4.65;;;;;;;15.55;100.00;100835.97;5032888;28;20105;-83
2023/05/09 11:33:43;;;;;;;6.88;4.35;;;;;;;15.78;100.00;100834.53;5035819;28;20041;-83
2023/05/09 11:36:16;;;;;;;6.60;4.63;;;;;;;15.68;100.00;100830.94;5031878;28;20030;-82
2023/05/09 11:38:41;;;;;;;7.80;5.72;;;;;;;15.75;100.00;100825.66;5033166;28;20049;-82
2023/05/09 11:41:08;;;;;;;11.27;5.50;;;;;;;16.11;100.00;100825.72;5015392;28;20395;-83
2023/05/09 11:43:37;;;;;;;8.30;5.60;;;;;;;15.92;100.00;100813.81;5032274;28;20424;-82
2023/05/09 11:46:03;;;;;;;40.80;6.90;;;;;;;15.81;100.00;100811.28;5033746;28;20037;-82
2023/05/09 11:48:29;;;;;;;8.05;6.03;;;;;;;15.64;100.00;100804.66;5021374;28;20037;-85